• NOTAM LFMK

    Service NotamWeb du SIA indisponible - NOTAMS inconnus

    NOTAM LFMZ

    Service NotamWeb du SIA indisponible - NOTAMS inconnus

    NOTAM LFMW

    Service NotamWeb du SIA indisponible - NOTAMS inconnus

    NOTAM LFCK

    Service NotamWeb du SIA indisponible - NOTAMS inconnus

    NOTAM LFMP

    Service NotamWeb du SIA indisponible - NOTAMS inconnus











  • PHOTOS SATELLITE

CARTE TEMSI

CARTE WINTEM

  • Vent au sol

  • Vent à 2000ft

  • ANIMATION RADAR

  • METAR/TAF LFMK (CARCASSONNE / Salvaza)

    LFMK 272100Z AUTO 26010KT 230V290 9999 FEW021 SCT042 BKN052 15/13 Q1013

    TAF LFMK 271400Z 2715/2815 28018G28KT 9999 BKN030 TEMPO 2722/2803 28012KT TEMPO 2801/2805 4000 RA BKN012 OVC030 BECMG 2808/2810 SCT020TCU BKN050

    METAR/TAF LFMP (PERPIGNAN / Rivesaltes)

    LFMP 272100Z AUTO 29021KT CAVOK 18/10 Q1012 BECMG 28004KT

    TAF LFMP 271400Z 2715/2815 31020G30KT 9999 SCT040 BECMG 2720/2722 29014KT BECMG 2722/2724 28004KT BECMG 2801/2803 29015G30KT BECMG 2811/2813 30020G40KT TEMPO 2800/2815 BKN030 FEW040CB

    METAR/TAF LFMT (MONTPELLIER-MÉDITERRANÉE)

    LFMT 272030Z AUTO 30013KT CAVOK 18/09 Q1011 TEMPO FEW040CB BKN090

    TAF LFMT 272000Z 2721/2821 27010KT 9999 FEW045 SCT140 BKN220 BECMG 2807/2809 27015G25KT

    METAR/TAF LFBO (TOULOUSE / Blagnac)

    LFBO 272030Z AUTO 26013KT 9999 FEW019 SCT039 OVC064 15/13 Q1014 TEMPO 4000 -RA BKN012 OVC030

    TAF LFBO 271700Z 2718/2824 28012KT 9999 SCT025 BKN060 TEMPO 2722/2805 4000 -RA BKN012 OVC030 TEMPO 2800/2819 27018G28KT TEMPO 2805/2824 4000 SHRA BKN015TCU BKN040

RESERVATION

  • COMM' Comité Régional Aéronautique

    AGENDA CRA Occitanie

     

    du 01 au 03 Juillet 2022                   Championnat de France de pilotage de précison à Graulhet


    du 20 au 27 Août 2022                     Championnat du Monde de pilotage de précison à Albi


    17 septembre 2022           Rallye aérien à Auch -  infos & inscriptions sur sports.ffa-aero.fr


    automne 2022                        Rallye aérien à Bédarieux - infos & inscriptions sur sports.ffa-aero.fr